createdAt,value
2023-03-24T00:01:14.589Z,37.44
2023-03-24T00:04:01.167Z,37.60
2023-03-24T00:06:49.411Z,37.72
2023-03-24T00:09:36.703Z,37.97
2023-03-24T00:12:22.511Z,37.91
2023-03-24T00:15:12.328Z,38.34
2023-03-24T00:17:58.463Z,38.14
2023-03-24T00:20:46.356Z,38.38
2023-03-24T00:23:33.982Z,38.34
2023-03-24T00:26:20.546Z,38.12
2023-03-24T00:29:08.934Z,38.84
2023-03-24T00:31:54.734Z,38.40
2023-03-24T00:34:40.580Z,38.97
2023-03-24T00:37:26.864Z,38.59
2023-03-24T00:40:16.465Z,38.38
2023-03-24T00:43:03.778Z,38.59
2023-03-24T00:45:49.709Z,38.76
2023-03-24T00:48:38.299Z,39.48
2023-03-24T00:51:25.327Z,39.53
2023-03-24T00:54:12.792Z,38.90
2023-03-24T00:56:58.883Z,39.32
2023-03-24T00:59:48.743Z,39.37
2023-03-24T01:02:34.792Z,39.34
2023-03-24T01:05:25.745Z,39.64
2023-03-24T01:08:11.506Z,39.18
2023-03-24T01:10:57.410Z,39.23
2023-03-24T01:13:43.402Z,40.00
2023-03-24T01:16:29.120Z,39.81
2023-03-24T01:19:15.887Z,39.74
2023-03-24T01:22:02.397Z,39.55
2023-03-24T01:24:49.277Z,39.69
2023-03-24T01:27:37.029Z,40.09
2023-03-24T01:30:28.544Z,40.55
2023-03-24T01:33:14.304Z,39.90
2023-03-24T01:36:00.111Z,40.07
2023-03-24T01:38:46.099Z,40.39
2023-03-24T01:41:35.584Z,40.13
2023-03-24T01:44:24.536Z,40.57
2023-03-24T01:47:10.576Z,40.23
2023-03-24T01:50:02.662Z,40.85
2023-03-24T01:52:50.420Z,43.18
2023-03-24T01:55:36.028Z,40.83
2023-03-24T01:58:25.576Z,40.27
2023-03-24T02:01:30.876Z,40.52
2023-03-24T02:04:25.863Z,40.67
2023-03-24T02:07:23.709Z,41.13
2023-03-24T02:10:11.091Z,43.43
2023-03-24T02:12:57.313Z,40.09
2023-03-24T02:16:10.493Z,42.55
2023-03-24T02:19:12.557Z,40.92
2023-03-24T02:22:29.503Z,41.54
2023-03-24T02:25:44.959Z,41.66
2023-03-24T02:28:41.466Z,41.53
2023-03-24T02:31:51.221Z,41.09
2023-03-24T02:35:03.850Z,41.58
2023-03-24T02:38:11.992Z,42.02
2023-03-24T02:41:17.192Z,41.41
2023-03-24T02:44:21.614Z,41.42
2023-03-24T02:47:15.356Z,41.82
2023-03-24T02:50:16.779Z,41.04
2023-03-24T02:53:09.982Z,41.56
2023-03-24T02:56:12.558Z,41.77
2023-03-24T02:59:03.331Z,41.52
2023-03-24T03:01:58.916Z,41.57
2023-03-24T03:05:19.970Z,41.60
2023-03-24T03:08:10.023Z,41.37
2023-03-24T03:10:57.639Z,41.71
2023-03-24T03:14:08.518Z,42.85
2023-03-24T03:17:05.030Z,42.15
2023-03-24T03:20:08.054Z,42.56
2023-03-24T03:22:57.016Z,44.65
2023-03-24T03:25:50.590Z,42.23
2023-03-24T03:28:39.119Z,42.10
2023-03-24T03:31:30.235Z,42.29
2023-03-24T03:34:49.733Z,42.72
2023-03-24T03:37:55.575Z,43.10
2023-03-24T03:40:42.382Z,41.95
2023-03-24T03:43:35.607Z,42.25
2023-03-24T03:46:22.213Z,42.24
2023-03-24T03:49:09.075Z,42.06
2023-03-24T03:51:55.808Z,42.08
2023-03-24T03:54:42.861Z,42.03
2023-03-24T03:57:29.075Z,42.41
2023-03-24T04:00:36.940Z,42.26
2023-03-24T04:04:10.640Z,42.63
2023-03-24T04:07:33.713Z,42.72
2023-03-24T04:11:21.279Z,44.57
2023-03-24T04:14:55.006Z,43.59
2023-03-24T04:18:17.416Z,43.94
2023-03-24T04:21:51.804Z,44.61
2023-03-24T04:24:52.007Z,42.77
2023-03-24T04:28:05.648Z,45.36
2023-03-24T04:31:01.423Z,42.53
2023-03-24T04:33:58.456Z,42.66
2023-03-24T04:37:06.878Z,44.86
2023-03-24T04:40:06.002Z,43.07
2023-03-24T04:42:53.703Z,43.26
2023-03-24T04:45:50.175Z,43.01
2023-03-24T04:48:49.225Z,43.02
2023-03-24T04:51:52.089Z,42.95
2023-03-24T04:54:42.069Z,42.98
2023-03-24T04:57:29.082Z,43.14
2023-03-24T05:00:19.961Z,43.40
2023-03-24T05:03:06.119Z,43.31
2023-03-24T05:05:53.241Z,43.21
2023-03-24T05:08:39.746Z,43.42
2023-03-24T05:11:27.360Z,43.26
2023-03-24T05:14:21.772Z,43.43
2023-03-24T05:17:07.832Z,43.40
2023-03-24T05:19:53.577Z,43.75
2023-03-24T05:22:41.017Z,43.44
2023-03-24T05:25:27.065Z,43.49
2023-03-24T05:28:12.877Z,43.55
2023-03-24T05:30:59.037Z,43.51
2023-03-24T05:34:03.397Z,43.96
2023-03-24T05:36:51.289Z,43.91
2023-03-24T05:39:40.432Z,43.57
2023-03-24T05:42:49.271Z,43.57
2023-03-24T05:45:35.610Z,43.83
2023-03-24T05:48:56.436Z,45.08
2023-03-24T05:51:49.548Z,43.98
2023-03-24T05:54:36.364Z,43.77
2023-03-24T05:57:34.839Z,43.68
2023-03-24T06:00:39.069Z,43.97
2023-03-24T06:03:34.710Z,43.95
2023-03-24T06:06:30.997Z,44.12
2023-03-24T06:09:17.062Z,43.55
2023-03-24T06:12:04.873Z,43.89
2023-03-24T06:14:54.749Z,44.03
2023-03-24T06:17:43.252Z,43.96
2023-03-24T06:20:39.192Z,44.16
2023-03-24T06:23:28.973Z,43.83
2023-03-24T06:26:25.475Z,44.31
2023-03-24T06:29:18.261Z,43.83
2023-03-24T06:32:05.728Z,43.80
2023-03-24T06:34:57.838Z,44.06
2023-03-24T06:37:57.787Z,43.75
2023-03-24T06:40:43.469Z,44.17
2023-03-24T06:43:30.153Z,43.99
2023-03-24T06:46:16.289Z,43.88
2023-03-24T06:49:04.922Z,44.13
2023-03-24T06:51:50.869Z,43.54
2023-03-24T06:54:37.691Z,43.73
2023-03-24T06:57:23.459Z,44.04
2023-03-24T07:00:48.784Z,43.85
2023-03-24T07:03:46.449Z,44.24
2023-03-24T07:06:43.060Z,43.92
2023-03-24T07:09:37.320Z,44.22
2023-03-24T07:12:23.195Z,44.13
2023-03-24T07:15:09.574Z,43.60
2023-03-24T07:17:55.666Z,44.11
2023-03-24T07:21:02.358Z,44.12
2023-03-24T07:23:49.194Z,43.84
2023-03-24T07:26:38.439Z,43.78
2023-03-24T07:29:37.387Z,43.52
2023-03-24T07:32:39.452Z,43.85
2023-03-24T07:35:25.523Z,44.00
2023-03-24T07:38:11.356Z,43.57
2023-03-24T07:41:01.276Z,44.18
2023-03-24T07:43:49.551Z,43.53
2023-03-24T07:46:58.059Z,43.74
2023-03-24T07:49:43.665Z,43.93
2023-03-24T07:52:30.949Z,43.71
2023-03-24T07:55:17.204Z,43.68
2023-03-24T07:58:16.354Z,43.71
2023-03-24T08:01:18.332Z,43.73
2023-03-24T08:04:07.464Z,43.82
2023-03-24T08:07:13.912Z,43.92
2023-03-24T08:09:59.845Z,43.77
2023-03-24T08:12:46.336Z,43.53
2023-03-24T08:15:32.399Z,43.19
2023-03-24T08:18:18.127Z,43.69
2023-03-24T08:21:04.434Z,43.45
2023-03-24T08:23:50.348Z,43.17
2023-03-24T08:26:36.392Z,43.26
2023-03-24T08:29:22.195Z,43.33
2023-03-24T08:32:07.903Z,43.36
2023-03-24T08:34:54.347Z,43.31
2023-03-24T08:37:43.374Z,43.10
2023-03-24T08:40:29.911Z,43.17
2023-03-24T08:43:16.194Z,43.05
2023-03-24T08:46:03.196Z,43.10
2023-03-24T08:48:49.135Z,43.01
2023-03-24T08:51:35.824Z,42.86
2023-03-24T08:54:23.734Z,42.76
2023-03-24T08:57:09.317Z,42.81
2023-03-24T08:59:55.062Z,42.66
2023-03-24T09:02:42.189Z,42.67
2023-03-24T09:05:43.401Z,42.41
2023-03-24T09:08:31.624Z,42.62
2023-03-24T09:11:19.407Z,42.55
2023-03-24T09:14:04.987Z,42.10
2023-03-24T09:16:51.541Z,41.84
2023-03-24T09:19:38.154Z,41.97
2023-03-24T09:22:24.134Z,41.99
2023-03-24T09:25:11.386Z,41.56
2023-03-24T09:27:57.557Z,41.79
2023-03-24T09:30:44.050Z,41.62
2023-03-24T09:33:30.740Z,41.60
2023-03-24T09:36:16.402Z,41.20
2023-03-24T09:39:02.097Z,41.33
2023-03-24T09:41:50.558Z,41.09
2023-03-24T09:44:41.517Z,40.61
2023-03-24T09:47:33.777Z,40.58
2023-03-24T09:50:26.716Z,40.45
2023-03-24T09:53:53.418Z,39.95
2023-03-24T09:56:41.473Z,40.03
2023-03-24T09:59:40.621Z,39.75
2023-03-24T10:02:29.325Z,39.75
2023-03-24T10:05:23.359Z,39.59
2023-03-24T10:08:29.446Z,38.84
2023-03-24T10:11:47.899Z,39.53
2023-03-24T10:15:37.926Z,38.81
2023-03-24T10:18:50.383Z,39.08
2023-03-24T10:21:39.487Z,38.89
2023-03-24T10:24:38.235Z,38.68
2023-03-24T10:27:29.292Z,38.44
2023-03-24T10:30:22.158Z,38.57
2023-03-24T10:33:11.688Z,38.22
2023-03-24T10:36:04.710Z,38.15
2023-03-24T10:38:52.749Z,38.13
2023-03-24T10:41:39.733Z,37.90
2023-03-24T10:44:27.100Z,37.89
2023-03-24T10:47:14.256Z,37.58
2023-03-24T10:50:12.704Z,37.35
2023-03-24T10:53:00.414Z,37.46
2023-03-24T10:55:47.913Z,37.00
2023-03-24T10:58:39.035Z,36.87
2023-03-24T11:01:25.071Z,36.67
2023-03-24T11:04:16.486Z,36.05
2023-03-24T11:07:14.167Z,35.95
2023-03-24T11:10:15.576Z,35.00
2023-03-24T11:13:04.085Z,35.61
2023-03-24T11:15:57.165Z,34.84
2023-03-24T11:19:02.885Z,34.41
2023-03-24T11:21:50.364Z,34.32
2023-03-24T11:24:37.865Z,33.63
2023-03-24T11:27:23.911Z,33.42
2023-03-24T11:30:13.482Z,32.59
2023-03-24T11:33:00.031Z,32.30
2023-03-24T11:35:50.335Z,32.25
2023-03-24T11:38:42.931Z,31.71
2023-03-24T11:41:28.655Z,31.09
2023-03-24T11:44:17.244Z,31.05
2023-03-24T11:47:16.573Z,30.61
2023-03-24T11:50:12.609Z,28.31
2023-03-24T11:53:16.616Z,26.63
2023-03-24T11:56:17.643Z,26.68
2023-03-24T11:59:09.408Z,29.38
2023-03-24T12:01:59.550Z,28.59
2023-03-24T12:05:04.912Z,27.77
2023-03-24T12:08:01.900Z,27.17
2023-03-24T12:11:06.682Z,22.43
2023-03-24T12:13:53.034Z,26.64
2023-03-24T12:16:54.856Z,25.49
2023-03-24T12:19:53.399Z,26.16
2023-03-24T12:22:47.834Z,26.68
2023-03-24T12:25:47.286Z,27.22
2023-03-24T12:28:54.109Z,26.38
2023-03-24T12:31:49.531Z,26.17
2023-03-24T12:34:53.585Z,23.70
2023-03-24T12:37:57.841Z,26.36
2023-03-24T12:41:02.210Z,24.08
2023-03-24T12:44:39.438Z,23.22
2023-03-24T12:47:50.832Z,21.90
2023-03-24T12:51:06.315Z,18.75
2023-03-24T12:54:31.406Z,19.96
2023-03-24T12:57:18.766Z,24.99
2023-03-24T13:00:13.755Z,24.69
2023-03-24T13:03:22.285Z,23.97
2023-03-24T13:06:35.304Z,21.22
2023-03-24T13:09:31.512Z,24.30
2023-03-24T13:12:21.067Z,23.65
2023-03-24T13:15:10.366Z,23.17
2023-03-24T13:17:55.968Z,23.29
2023-03-24T13:20:44.664Z,22.75
2023-03-24T13:23:44.038Z,22.40
2023-03-24T13:26:39.514Z,22.40
2023-03-24T13:29:49.857Z,20.00
2023-03-24T13:32:48.373Z,21.93
2023-03-24T13:35:56.438Z,21.69
2023-03-24T13:38:53.575Z,16.67
2023-03-24T13:41:39.897Z,21.40
2023-03-24T13:48:10.517Z,19.99
2023-03-24T13:51:26.782Z,19.85
2023-03-24T13:54:18.555Z,19.77
2023-03-24T13:57:08.938Z,19.29
2023-03-24T14:00:14.452Z,18.12
2023-03-24T14:03:16.958Z,18.29
2023-03-24T14:06:05.454Z,18.65
2023-03-24T14:08:53.774Z,18.13
2023-03-24T14:11:43.349Z,18.14
2023-03-24T14:14:31.358Z,18.39
2023-03-24T14:17:17.249Z,18.27
2023-03-24T14:20:12.528Z,17.88
2023-03-24T14:22:59.058Z,18.29
2023-03-24T14:26:17.398Z,17.87
2023-03-24T14:29:03.977Z,18.41
2023-03-24T14:31:51.986Z,18.59
2023-03-24T14:34:37.771Z,18.81
2023-03-24T14:37:24.727Z,19.08
2023-03-24T14:40:44.866Z,18.74
2023-03-24T14:43:56.427Z,18.20
2023-03-24T14:46:50.363Z,19.28
2023-03-24T14:49:34.766Z,19.12
2023-03-24T14:52:36.535Z,19.45
2023-03-24T14:55:24.187Z,19.97
2023-03-24T14:58:22.263Z,20.19
2023-03-24T15:01:09.464Z,20.82
2023-03-24T15:04:07.677Z,21.31
2023-03-24T15:06:54.042Z,21.85
2023-03-24T15:09:50.545Z,22.40
2023-03-24T15:12:36.567Z,22.47
2023-03-24T15:15:25.892Z,22.90
2023-03-24T15:18:26.813Z,23.14
2023-03-24T15:21:24.025Z,23.25
2023-03-24T15:24:34.291Z,23.89
2023-03-24T15:27:27.260Z,23.80
2023-03-24T15:30:16.554Z,24.23
2023-03-24T15:33:03.616Z,24.27
2023-03-24T15:35:57.101Z,25.06
2023-03-24T15:38:50.054Z,24.96
2023-03-24T15:41:36.021Z,24.78
2023-03-24T15:44:31.892Z,25.17
2023-03-24T15:47:22.938Z,25.24
2023-03-24T15:50:32.354Z,25.62
2023-03-24T15:53:18.235Z,25.35
2023-03-24T15:56:28.651Z,25.78
2023-03-24T15:59:15.704Z,25.71
2023-03-24T16:02:03.817Z,25.59
2023-03-24T16:05:00.229Z,25.70
2023-03-24T16:08:06.275Z,26.34
2023-03-24T16:11:00.824Z,26.51
2023-03-24T16:13:46.593Z,26.82
2023-03-24T16:16:36.951Z,26.42
2023-03-24T16:19:23.107Z,26.84
2023-03-24T16:22:12.662Z,26.74
2023-03-24T16:24:59.257Z,26.76
2023-03-24T16:27:45.274Z,26.62
2023-03-24T16:30:37.856Z,26.94
2023-03-24T16:33:36.327Z,26.87
2023-03-24T16:36:23.545Z,27.04
2023-03-24T16:39:18.088Z,27.02
2023-03-24T16:42:04.401Z,27.02
2023-03-24T16:44:50.392Z,27.09
2023-03-24T16:47:38.428Z,27.25
2023-03-24T16:50:42.376Z,27.24
2023-03-24T16:53:28.279Z,27.27
2023-03-24T16:56:16.750Z,27.45
2023-03-24T16:59:03.859Z,27.62
2023-03-24T17:01:52.368Z,27.46
2023-03-24T17:04:38.447Z,27.73
2023-03-24T17:07:24.029Z,27.76
2023-03-24T17:10:10.236Z,27.79
2023-03-24T17:31:28.553Z,28.30
2023-03-24T17:52:55.184Z,29.44
2023-03-24T17:55:41.334Z,29.42
2023-03-24T17:58:27.120Z,29.50
2023-03-24T18:01:14.969Z,29.25
2023-03-24T18:04:01.356Z,29.03
2023-03-24T18:06:47.862Z,29.24
2023-03-24T18:09:34.237Z,29.11
2023-03-24T18:12:20.734Z,29.10
2023-03-24T18:15:07.574Z,29.03
2023-03-24T18:17:53.969Z,29.21
2023-03-24T18:20:39.911Z,29.18
2023-03-24T18:23:26.526Z,29.17
2023-03-24T18:26:12.285Z,29.25
2023-03-24T18:28:58.148Z,29.42
2023-03-24T18:31:43.978Z,29.57
2023-03-24T18:34:30.876Z,29.55
2023-03-24T18:37:16.991Z,29.78
2023-03-24T18:40:07.409Z,29.69
2023-03-24T18:42:53.438Z,29.88
2023-03-24T18:45:39.332Z,29.90
2023-03-24T18:48:25.246Z,29.90
2023-03-24T18:51:11.624Z,30.07
2023-03-24T18:53:57.448Z,30.04
2023-03-24T18:56:43.593Z,30.20
2023-03-24T18:59:31.196Z,30.28
2023-03-24T19:02:17.247Z,30.10
2023-03-24T19:05:04.216Z,30.29
2023-03-24T19:07:52.341Z,30.53
2023-03-24T19:10:38.316Z,30.49
2023-03-24T19:13:24.177Z,30.42
2023-03-24T19:16:11.954Z,30.95
2023-03-24T19:19:01.025Z,30.94
2023-03-24T19:21:47.407Z,30.66
2023-03-24T19:24:42.928Z,30.98
2023-03-24T19:27:29.355Z,31.02
2023-03-24T19:30:17.360Z,31.02
2023-03-24T19:33:03.648Z,31.04
2023-03-24T19:35:51.040Z,31.23
2023-03-24T19:38:38.780Z,31.29
2023-03-24T19:41:26.613Z,31.35
2023-03-24T19:44:12.777Z,31.52
2023-03-24T19:46:58.857Z,31.34
2023-03-24T19:49:44.894Z,31.56
2023-03-24T19:52:31.044Z,31.72
2023-03-24T19:55:17.069Z,31.52
2023-03-24T19:58:03.894Z,31.84
2023-03-24T20:00:50.896Z,31.73
2023-03-24T20:03:37.556Z,32.16
2023-03-24T20:06:23.758Z,32.19
2023-03-24T20:09:09.556Z,32.00
2023-03-24T20:11:55.575Z,32.17
2023-03-24T20:14:41.848Z,32.15
2023-03-24T20:17:29.777Z,32.30
2023-03-24T20:20:18.311Z,32.43
2023-03-24T20:23:04.787Z,32.34
2023-03-24T20:25:52.322Z,32.36
2023-03-24T20:28:38.413Z,32.41
2023-03-24T20:31:28.101Z,32.81
2023-03-24T20:34:13.993Z,32.86
2023-03-24T20:37:00.238Z,32.84
2023-03-24T20:39:46.515Z,33.16
2023-03-24T20:42:33.769Z,33.12
2023-03-24T20:45:20.014Z,33.02
2023-03-24T20:48:06.785Z,33.09
2023-03-24T20:50:53.286Z,33.13
2023-03-24T20:53:40.794Z,33.32
2023-03-24T20:56:26.710Z,33.43
2023-03-24T20:59:13.858Z,33.58
2023-03-24T21:02:01.996Z,33.49
2023-03-24T21:04:48.007Z,33.44
2023-03-24T21:07:34.373Z,33.70
2023-03-24T21:10:20.479Z,33.56
2023-03-24T21:13:08.813Z,34.12
2023-03-24T21:15:54.957Z,33.69
2023-03-24T21:18:42.773Z,33.57
2023-03-24T21:21:29.242Z,33.92
2023-03-24T21:24:16.225Z,34.16
2023-03-24T21:27:02.305Z,34.11
2023-03-24T21:29:48.237Z,34.22
2023-03-24T21:32:36.682Z,34.23
2023-03-24T21:35:25.192Z,34.38
2023-03-24T21:38:11.868Z,34.08
2023-03-24T21:40:58.698Z,34.37
2023-03-24T21:43:51.380Z,34.44
2023-03-24T21:46:37.728Z,34.34
2023-03-24T21:49:23.497Z,34.58
2023-03-24T21:52:09.451Z,34.39
2023-03-24T21:54:58.237Z,34.79
2023-03-24T21:57:45.590Z,34.46
2023-03-24T22:00:35.330Z,34.51
2023-03-24T22:03:21.943Z,34.69
2023-03-24T22:06:10.816Z,34.59
2023-03-24T22:08:58.729Z,34.56
2023-03-24T22:11:45.497Z,34.53
2023-03-24T22:14:31.738Z,34.68
2023-03-24T22:17:17.730Z,35.04
2023-03-24T22:20:09.300Z,34.82
2023-03-24T22:22:56.297Z,34.87
2023-03-24T22:25:42.049Z,34.77
2023-03-24T22:28:29.028Z,35.00
2023-03-24T22:31:16.898Z,35.04
2023-03-24T22:34:02.892Z,35.48
2023-03-24T22:36:48.618Z,34.97
2023-03-24T22:39:34.271Z,35.35
2023-03-24T22:42:20.296Z,35.59
2023-03-24T22:45:07.030Z,35.57
2023-03-24T22:47:53.068Z,35.66
2023-03-24T22:50:42.244Z,35.59
2023-03-24T22:53:28.599Z,35.57
2023-03-24T22:56:15.509Z,35.84
2023-03-24T22:59:01.571Z,35.66
2023-03-24T23:01:53.663Z,35.77
2023-03-24T23:04:48.407Z,35.77
2023-03-24T23:07:35.001Z,35.71
2023-03-24T23:10:21.440Z,35.91
2023-03-24T23:13:07.249Z,36.22
2023-03-24T23:15:53.813Z,36.14
2023-03-24T23:18:39.563Z,36.28
2023-03-24T23:21:25.258Z,35.95
2023-03-24T23:24:11.284Z,35.96
2023-03-24T23:26:57.242Z,36.30
2023-03-24T23:29:43.101Z,36.54
2023-03-24T23:32:28.864Z,36.50
2023-03-24T23:35:15.571Z,36.60
2023-03-24T23:38:02.540Z,37.03
2023-03-24T23:40:48.693Z,37.00
2023-03-24T23:43:35.599Z,37.32
2023-03-24T23:46:22.226Z,37.26
2023-03-24T23:49:09.650Z,37.46
2023-03-24T23:51:55.670Z,37.52
2023-03-24T23:54:41.950Z,37.53
2023-03-24T23:57:28.010Z,37.63
